sensor_id;sensor_type;location;lat;lon;timestamp;P1;durP1;ratioP1;P2;durP2;ratioP2
72813;SDS011;60945;48.516;-2.768;2023-03-02T00:01:27;14.00;;;8.30;;
72813;SDS011;60945;48.516;-2.768;2023-03-02T00:04:45;11.18;;;8.00;;
72813;SDS011;60945;48.516;-2.768;2023-03-02T00:07:17;12.75;;;8.18;;
72813;SDS011;60945;48.516;-2.768;2023-03-02T00:09:45;10.90;;;8.63;;
72813;SDS011;60945;48.516;-2.768;2023-03-02T00:12:10;13.85;;;8.25;;
72813;SDS011;60945;48.516;-2.768;2023-03-02T00:14:37;12.98;;;8.48;;
72813;SDS011;60945;48.516;-2.768;2023-03-02T00:17:03;11.68;;;9.10;;
72813;SDS011;60945;48.516;-2.768;2023-03-02T00:19:29;12.73;;;8.77;;
72813;SDS011;60945;48.516;-2.768;2023-03-02T00:21:55;10.70;;;9.63;;
72813;SDS011;60945;48.516;-2.768;2023-03-02T00:24:23;10.55;;;9.40;;
72813;SDS011;60945;48.516;-2.768;2023-03-02T00:26:49;13.40;;;9.68;;
72813;SDS011;60945;48.516;-2.768;2023-03-02T00:29:14;9.88;;;8.88;;
72813;SDS011;60945;48.516;-2.768;2023-03-02T00:31:40;10.38;;;9.10;;
72813;SDS011;60945;48.516;-2.768;2023-03-02T00:34:06;17.55;;;10.10;;
72813;SDS011;60945;48.516;-2.768;2023-03-02T00:36:31;11.40;;;9.27;;
72813;SDS011;60945;48.516;-2.768;2023-03-02T00:38:57;12.40;;;10.38;;
72813;SDS011;60945;48.516;-2.768;2023-03-02T00:41:23;14.75;;;8.82;;
72813;SDS011;60945;48.516;-2.768;2023-03-02T00:43:49;11.48;;;9.82;;
72813;SDS011;60945;48.516;-2.768;2023-03-02T00:46:18;12.75;;;9.18;;
72813;SDS011;60945;48.516;-2.768;2023-03-02T00:48:46;12.32;;;9.65;;
72813;SDS011;60945;48.516;-2.768;2023-03-02T00:51:12;12.35;;;9.73;;
72813;SDS011;60945;48.516;-2.768;2023-03-02T00:53:39;12.80;;;9.18;;
72813;SDS011;60945;48.516;-2.768;2023-03-02T00:56:05;12.63;;;9.65;;
72813;SDS011;60945;48.516;-2.768;2023-03-02T00:58:31;10.57;;;8.90;;
72813;SDS011;60945;48.516;-2.768;2023-03-02T01:01:02;11.75;;;8.70;;
72813;SDS011;60945;48.516;-2.768;2023-03-02T01:03:33;12.27;;;8.63;;
72813;SDS011;60945;48.516;-2.768;2023-03-02T01:05:59;12.10;;;9.40;;
72813;SDS011;60945;48.516;-2.768;2023-03-02T01:08:24;10.98;;;9.15;;
72813;SDS011;60945;48.516;-2.768;2023-03-02T01:10:50;9.95;;;8.82;;
72813;SDS011;60945;48.516;-2.768;2023-03-02T01:13:17;11.50;;;9.35;;
72813;SDS011;60945;48.516;-2.768;2023-03-02T01:15:43;11.38;;;10.13;;
72813;SDS011;60945;48.516;-2.768;2023-03-02T01:18:09;12.93;;;9.10;;
72813;SDS011;60945;48.516;-2.768;2023-03-02T01:20:35;12.45;;;9.02;;
72813;SDS011;60945;48.516;-2.768;2023-03-02T01:23:01;13.38;;;9.85;;
72813;SDS011;60945;48.516;-2.768;2023-03-02T01:25:26;11.52;;;8.65;;
72813;SDS011;60945;48.516;-2.768;2023-03-02T01:27:52;10.88;;;8.32;;
72813;SDS011;60945;48.516;-2.768;2023-03-02T01:30:18;11.55;;;8.38;;
72813;SDS011;60945;48.516;-2.768;2023-03-02T01:32:44;10.90;;;8.70;;
72813;SDS011;60945;48.516;-2.768;2023-03-02T01:35:10;12.95;;;9.05;;
72813;SDS011;60945;48.516;-2.768;2023-03-02T01:37:36;17.42;;;13.68;;
72813;SDS011;60945;48.516;-2.768;2023-03-02T01:40:01;10.73;;;8.70;;
72813;SDS011;60945;48.516;-2.768;2023-03-02T01:42:36;12.00;;;8.82;;
72813;SDS011;60945;48.516;-2.768;2023-03-02T01:45:02;15.75;;;9.32;;
72813;SDS011;60945;48.516;-2.768;2023-03-02T01:47:32;11.98;;;8.82;;
72813;SDS011;60945;48.516;-2.768;2023-03-02T01:52:47;11.98;;;8.20;;
72813;SDS011;60945;48.516;-2.768;2023-03-02T01:55:14;11.63;;;8.48;;
72813;SDS011;60945;48.516;-2.768;2023-03-02T01:57:45;11.77;;;8.70;;
72813;SDS011;60945;48.516;-2.768;2023-03-02T02:00:17;13.27;;;8.60;;
72813;SDS011;60945;48.516;-2.768;2023-03-02T02:02:49;14.75;;;9.45;;
72813;SDS011;60945;48.516;-2.768;2023-03-02T02:05:23;15.65;;;9.68;;
72813;SDS011;60945;48.516;-2.768;2023-03-02T02:07:52;11.63;;;8.88;;
72813;SDS011;60945;48.516;-2.768;2023-03-02T02:10:17;12.30;;;9.27;;
72813;SDS011;60945;48.516;-2.768;2023-03-02T02:12:44;11.40;;;9.05;;
72813;SDS011;60945;48.516;-2.768;2023-03-02T02:15:12;13.65;;;9.20;;
72813;SDS011;60945;48.516;-2.768;2023-03-02T02:17:38;13.23;;;8.65;;
72813;SDS011;60945;48.516;-2.768;2023-03-02T02:23:16;13.43;;;9.20;;
72813;SDS011;60945;48.516;-2.768;2023-03-02T02:28:22;14.07;;;9.88;;
72813;SDS011;60945;48.516;-2.768;2023-03-02T02:31:01;10.45;;;9.45;;
72813;SDS011;60945;48.516;-2.768;2023-03-02T02:33:28;13.40;;;9.52;;
72813;SDS011;60945;48.516;-2.768;2023-03-02T02:36:05;16.25;;;10.82;;
72813;SDS011;60945;48.516;-2.768;2023-03-02T02:38:34;13.65;;;9.32;;
72813;SDS011;60945;48.516;-2.768;2023-03-02T02:41:02;16.00;;;10.63;;
72813;SDS011;60945;48.516;-2.768;2023-03-02T02:43:30;12.50;;;9.45;;
72813;SDS011;60945;48.516;-2.768;2023-03-02T02:45:57;13.55;;;9.88;;
72813;SDS011;60945;48.516;-2.768;2023-03-02T02:48:24;12.63;;;9.43;;
72813;SDS011;60945;48.516;-2.768;2023-03-02T02:50:54;11.55;;;9.93;;
72813;SDS011;60945;48.516;-2.768;2023-03-02T02:56:11;10.25;;;9.00;;
72813;SDS011;60945;48.516;-2.768;2023-03-02T02:58:49;13.55;;;9.88;;
72813;SDS011;60945;48.516;-2.768;2023-03-02T03:01:18;13.02;;;8.98;;
72813;SDS011;60945;48.516;-2.768;2023-03-02T03:03:51;13.63;;;9.35;;
72813;SDS011;60945;48.516;-2.768;2023-03-02T03:06:22;14.75;;;8.98;;
72813;SDS011;60945;48.516;-2.768;2023-03-02T03:08:55;10.48;;;8.48;;
72813;SDS011;60945;48.516;-2.768;2023-03-02T03:11:24;11.73;;;9.18;;
72813;SDS011;60945;48.516;-2.768;2023-03-02T03:13:56;13.65;;;8.98;;
72813;SDS011;60945;48.516;-2.768;2023-03-02T03:16:34;12.57;;;9.13;;
72813;SDS011;60945;48.516;-2.768;2023-03-02T03:19:12;13.93;;;9.48;;
72813;SDS011;60945;48.516;-2.768;2023-03-02T03:21:46;13.00;;;9.88;;
72813;SDS011;60945;48.516;-2.768;2023-03-02T03:24:13;12.38;;;9.18;;
72813;SDS011;60945;48.516;-2.768;2023-03-02T03:26:39;12.05;;;9.60;;
72813;SDS011;60945;48.516;-2.768;2023-03-02T03:29:05;13.98;;;9.45;;
72813;SDS011;60945;48.516;-2.768;2023-03-02T03:31:31;15.05;;;9.80;;
72813;SDS011;60945;48.516;-2.768;2023-03-02T03:33:57;15.30;;;10.50;;
72813;SDS011;60945;48.516;-2.768;2023-03-02T03:36:25;12.43;;;10.02;;
72813;SDS011;60945;48.516;-2.768;2023-03-02T03:38:55;11.52;;;9.43;;
72813;SDS011;60945;48.516;-2.768;2023-03-02T03:41:21;16.42;;;11.05;;
72813;SDS011;60945;48.516;-2.768;2023-03-02T03:43:47;15.15;;;9.93;;
72813;SDS011;60945;48.516;-2.768;2023-03-02T03:46:13;13.27;;;11.18;;
72813;SDS011;60945;48.516;-2.768;2023-03-02T03:48:38;13.20;;;9.57;;
72813;SDS011;60945;48.516;-2.768;2023-03-02T03:51:05;12.70;;;9.55;;
72813;SDS011;60945;48.516;-2.768;2023-03-02T03:53:31;16.17;;;9.80;;
72813;SDS011;60945;48.516;-2.768;2023-03-02T03:55:56;12.25;;;8.98;;
72813;SDS011;60945;48.516;-2.768;2023-03-02T03:58:22;12.63;;;8.95;;
72813;SDS011;60945;48.516;-2.768;2023-03-02T04:00:49;12.52;;;10.65;;
72813;SDS011;60945;48.516;-2.768;2023-03-02T04:03:16;13.05;;;9.65;;
72813;SDS011;60945;48.516;-2.768;2023-03-02T04:05:43;12.30;;;9.55;;
72813;SDS011;60945;48.516;-2.768;2023-03-02T04:08:15;10.10;;;9.10;;
72813;SDS011;60945;48.516;-2.768;2023-03-02T04:10:41;13.18;;;9.55;;
72813;SDS011;60945;48.516;-2.768;2023-03-02T04:13:06;16.92;;;10.00;;
72813;SDS011;60945;48.516;-2.768;2023-03-02T04:15:32;10.85;;;8.75;;
72813;SDS011;60945;48.516;-2.768;2023-03-02T04:17:58;11.10;;;9.32;;
72813;SDS011;60945;48.516;-2.768;2023-03-02T04:20:24;10.00;;;8.65;;
72813;SDS011;60945;48.516;-2.768;2023-03-02T04:22:51;9.30;;;8.30;;
72813;SDS011;60945;48.516;-2.768;2023-03-02T04:25:19;9.10;;;8.20;;
72813;SDS011;60945;48.516;-2.768;2023-03-02T04:27:47;12.52;;;7.68;;
72813;SDS011;60945;48.516;-2.768;2023-03-02T04:30:16;11.25;;;8.45;;
72813;SDS011;60945;48.516;-2.768;2023-03-02T04:32:43;12.50;;;7.45;;
72813;SDS011;60945;48.516;-2.768;2023-03-02T04:35:10;11.65;;;8.30;;
72813;SDS011;60945;48.516;-2.768;2023-03-02T04:37:36;9.80;;;7.50;;
72813;SDS011;60945;48.516;-2.768;2023-03-02T04:40:02;12.63;;;7.90;;
72813;SDS011;60945;48.516;-2.768;2023-03-02T04:42:28;11.95;;;7.22;;
72813;SDS011;60945;48.516;-2.768;2023-03-02T04:44:54;10.30;;;7.47;;
72813;SDS011;60945;48.516;-2.768;2023-03-02T04:47:20;9.73;;;7.95;;
72813;SDS011;60945;48.516;-2.768;2023-03-02T04:49:46;8.80;;;7.90;;
72813;SDS011;60945;48.516;-2.768;2023-03-02T04:52:14;8.65;;;7.75;;
72813;SDS011;60945;48.516;-2.768;2023-03-02T04:54:40;9.90;;;7.20;;
72813;SDS011;60945;48.516;-2.768;2023-03-02T04:57:06;11.70;;;7.82;;
72813;SDS011;60945;48.516;-2.768;2023-03-02T04:59:32;7.78;;;7.00;;
72813;SDS011;60945;48.516;-2.768;2023-03-02T05:01:58;9.60;;;6.80;;
72813;SDS011;60945;48.516;-2.768;2023-03-02T05:04:25;7.63;;;6.90;;
72813;SDS011;60945;48.516;-2.768;2023-03-02T05:06:51;8.32;;;7.53;;
72813;SDS011;60945;48.516;-2.768;2023-03-02T05:09:17;7.72;;;6.90;;
72813;SDS011;60945;48.516;-2.768;2023-03-02T05:11:43;10.15;;;6.97;;
72813;SDS011;60945;48.516;-2.768;2023-03-02T05:14:10;9.57;;;7.13;;
72813;SDS011;60945;48.516;-2.768;2023-03-02T05:16:37;8.20;;;7.35;;
72813;SDS011;60945;48.516;-2.768;2023-03-02T05:19:06;9.45;;;6.93;;
72813;SDS011;60945;48.516;-2.768;2023-03-02T05:21:33;10.48;;;7.63;;
72813;SDS011;60945;48.516;-2.768;2023-03-02T05:23:59;13.02;;;7.55;;
72813;SDS011;60945;48.516;-2.768;2023-03-02T05:26:25;10.27;;;8.40;;
72813;SDS011;60945;48.516;-2.768;2023-03-02T05:28:50;8.75;;;7.28;;
72813;SDS011;60945;48.516;-2.768;2023-03-02T05:31:18;9.88;;;8.10;;
72813;SDS011;60945;48.516;-2.768;2023-03-02T05:33:45;10.70;;;8.45;;
72813;SDS011;60945;48.516;-2.768;2023-03-02T05:36:11;11.60;;;9.05;;
72813;SDS011;60945;48.516;-2.768;2023-03-02T05:38:37;10.93;;;8.80;;
72813;SDS011;60945;48.516;-2.768;2023-03-02T05:41:03;10.18;;;8.95;;
72813;SDS011;60945;48.516;-2.768;2023-03-02T05:43:29;12.50;;;10.02;;
72813;SDS011;60945;48.516;-2.768;2023-03-02T05:45:55;11.85;;;10.65;;
72813;SDS011;60945;48.516;-2.768;2023-03-02T05:48:25;12.05;;;10.75;;
72813;SDS011;60945;48.516;-2.768;2023-03-02T05:50:55;12.50;;;10.38;;
72813;SDS011;60945;48.516;-2.768;2023-03-02T05:53:21;13.27;;;10.75;;
72813;SDS011;60945;48.516;-2.768;2023-03-02T05:55:47;15.40;;;13.70;;
72813;SDS011;60945;48.516;-2.768;2023-03-02T05:58:14;11.98;;;10.57;;
72813;SDS011;60945;48.516;-2.768;2023-03-02T06:00:42;12.05;;;10.20;;
72813;SDS011;60945;48.516;-2.768;2023-03-02T06:03:08;14.70;;;10.95;;
72813;SDS011;60945;48.516;-2.768;2023-03-02T06:05:34;13.88;;;10.63;;
72813;SDS011;60945;48.516;-2.768;2023-03-02T06:08:00;17.85;;;16.02;;
72813;SDS011;60945;48.516;-2.768;2023-03-02T06:10:26;15.00;;;12.38;;
72813;SDS011;60945;48.516;-2.768;2023-03-02T06:12:52;16.00;;;13.68;;
72813;SDS011;60945;48.516;-2.768;2023-03-02T06:15:18;18.23;;;12.88;;
72813;SDS011;60945;48.516;-2.768;2023-03-02T06:17:44;18.77;;;14.18;;
72813;SDS011;60945;48.516;-2.768;2023-03-02T06:20:10;21.05;;;15.15;;
72813;SDS011;60945;48.516;-2.768;2023-03-02T06:22:40;24.77;;;20.08;;
72813;SDS011;60945;48.516;-2.768;2023-03-02T06:25:10;24.08;;;16.45;;
72813;SDS011;60945;48.516;-2.768;2023-03-02T06:27:37;21.08;;;16.30;;
72813;SDS011;60945;48.516;-2.768;2023-03-02T06:30:04;23.70;;;17.33;;
72813;SDS011;60945;48.516;-2.768;2023-03-02T06:32:31;24.05;;;17.70;;
72813;SDS011;60945;48.516;-2.768;2023-03-02T06:35:02;26.50;;;18.15;;
72813;SDS011;60945;48.516;-2.768;2023-03-02T06:37:28;28.42;;;23.30;;
72813;SDS011;60945;48.516;-2.768;2023-03-02T06:39:55;29.77;;;19.27;;
72813;SDS011;60945;48.516;-2.768;2023-03-02T06:42:22;27.83;;;19.30;;
72813;SDS011;60945;48.516;-2.768;2023-03-02T06:44:48;26.95;;;20.20;;
72813;SDS011;60945;48.516;-2.768;2023-03-02T06:47:16;26.98;;;19.88;;
72813;SDS011;60945;48.516;-2.768;2023-03-02T06:49:42;29.33;;;23.25;;
72813;SDS011;60945;48.516;-2.768;2023-03-02T06:52:08;30.13;;;22.35;;
72813;SDS011;60945;48.516;-2.768;2023-03-02T06:54:35;29.27;;;22.70;;
72813;SDS011;60945;48.516;-2.768;2023-03-02T06:57:01;28.60;;;21.00;;
72813;SDS011;60945;48.516;-2.768;2023-03-02T06:59:27;32.00;;;21.33;;
72813;SDS011;60945;48.516;-2.768;2023-03-02T07:01:52;35.33;;;27.67;;
72813;SDS011;60945;48.516;-2.768;2023-03-02T07:04:18;28.17;;;22.05;;
72813;SDS011;60945;48.516;-2.768;2023-03-02T07:06:44;33.97;;;21.88;;
72813;SDS011;60945;48.516;-2.768;2023-03-02T07:09:10;29.55;;;22.10;;
72813;SDS011;60945;48.516;-2.768;2023-03-02T07:11:35;31.65;;;27.98;;
72813;SDS011;60945;48.516;-2.768;2023-03-02T07:14:01;33.33;;;29.73;;
72813;SDS011;60945;48.516;-2.768;2023-03-02T07:16:27;33.33;;;28.25;;
72813;SDS011;60945;48.516;-2.768;2023-03-02T07:18:54;29.75;;;26.60;;
72813;SDS011;60945;48.516;-2.768;2023-03-02T07:21:20;28.33;;;22.83;;
72813;SDS011;60945;48.516;-2.768;2023-03-02T07:23:45;33.33;;;23.55;;
72813;SDS011;60945;48.516;-2.768;2023-03-02T07:26:11;34.55;;;29.00;;
72813;SDS011;60945;48.516;-2.768;2023-03-02T07:28:37;32.40;;;22.15;;
72813;SDS011;60945;48.516;-2.768;2023-03-02T07:31:04;30.88;;;22.20;;
72813;SDS011;60945;48.516;-2.768;2023-03-02T07:33:30;30.85;;;22.80;;
72813;SDS011;60945;48.516;-2.768;2023-03-02T07:35:56;31.33;;;22.60;;
72813;SDS011;60945;48.516;-2.768;2023-03-02T07:38:22;35.05;;;31.40;;
72813;SDS011;60945;48.516;-2.768;2023-03-02T07:40:48;31.10;;;23.25;;
72813;SDS011;60945;48.516;-2.768;2023-03-02T07:43:14;30.55;;;23.45;;
72813;SDS011;60945;48.516;-2.768;2023-03-02T07:45:43;34.03;;;23.73;;
72813;SDS011;60945;48.516;-2.768;2023-03-02T07:48:09;34.75;;;27.30;;
72813;SDS011;60945;48.516;-2.768;2023-03-02T07:50:34;32.47;;;26.33;;
72813;SDS011;60945;48.516;-2.768;2023-03-02T07:53:00;32.85;;;23.80;;
72813;SDS011;60945;48.516;-2.768;2023-03-02T07:55:26;36.45;;;29.45;;
72813;SDS011;60945;48.516;-2.768;2023-03-02T07:57:52;34.45;;;29.10;;
72813;SDS011;60945;48.516;-2.768;2023-03-02T08:00:18;34.05;;;24.52;;
72813;SDS011;60945;48.516;-2.768;2023-03-02T08:02:45;38.45;;;28.13;;
72813;SDS011;60945;48.516;-2.768;2023-03-02T08:05:12;33.53;;;27.38;;
72813;SDS011;60945;48.516;-2.768;2023-03-02T08:07:38;36.22;;;29.00;;
72813;SDS011;60945;48.516;-2.768;2023-03-02T08:10:08;40.38;;;36.17;;
72813;SDS011;60945;48.516;-2.768;2023-03-02T08:12:34;39.00;;;26.42;;
72813;SDS011;60945;48.516;-2.768;2023-03-02T08:15:00;37.17;;;28.65;;
72813;SDS011;60945;48.516;-2.768;2023-03-02T08:17:26;39.13;;;27.48;;
72813;SDS011;60945;48.516;-2.768;2023-03-02T08:19:52;38.40;;;30.48;;
72813;SDS011;60945;48.516;-2.768;2023-03-02T08:22:20;38.67;;;26.67;;
72813;SDS011;60945;48.516;-2.768;2023-03-02T08:24:46;43.35;;;39.05;;
72813;SDS011;60945;48.516;-2.768;2023-03-02T08:27:12;36.60;;;26.30;;
72813;SDS011;60945;48.516;-2.768;2023-03-02T08:29:39;37.55;;;27.25;;
72813;SDS011;60945;48.516;-2.768;2023-03-02T08:32:04;35.88;;;26.60;;
72813;SDS011;60945;48.516;-2.768;2023-03-02T08:34:30;35.13;;;26.38;;
72813;SDS011;60945;48.516;-2.768;2023-03-02T08:36:59;35.22;;;25.35;;
72813;SDS011;60945;48.516;-2.768;2023-03-02T08:39:25;34.97;;;31.10;;
72813;SDS011;60945;48.516;-2.768;2023-03-02T08:41:54;37.70;;;26.92;;
72813;SDS011;60945;48.516;-2.768;2023-03-02T08:44:19;35.58;;;26.25;;
72813;SDS011;60945;48.516;-2.768;2023-03-02T08:46:46;33.75;;;28.67;;
72813;SDS011;60945;48.516;-2.768;2023-03-02T08:49:15;38.47;;;31.95;;
72813;SDS011;60945;48.516;-2.768;2023-03-02T08:51:42;33.70;;;25.67;;
72813;SDS011;60945;48.516;-2.768;2023-03-02T08:54:09;32.70;;;25.42;;
72813;SDS011;60945;48.516;-2.768;2023-03-02T08:56:36;35.92;;;26.55;;
72813;SDS011;60945;48.516;-2.768;2023-03-02T08:59:04;32.47;;;25.40;;
72813;SDS011;60945;48.516;-2.768;2023-03-02T09:01:32;34.13;;;26.13;;
72813;SDS011;60945;48.516;-2.768;2023-03-02T09:03:59;36.35;;;29.45;;
72813;SDS011;60945;48.516;-2.768;2023-03-02T09:06:29;30.42;;;23.75;;
72813;SDS011;60945;48.516;-2.768;2023-03-02T09:08:56;35.70;;;32.28;;
72813;SDS011;60945;48.516;-2.768;2023-03-02T09:11:23;34.35;;;30.75;;
72813;SDS011;60945;48.516;-2.768;2023-03-02T09:13:49;32.53;;;24.73;;
72813;SDS011;60945;48.516;-2.768;2023-03-02T09:16:14;30.42;;;25.58;;
72813;SDS011;60945;48.516;-2.768;2023-03-02T09:18:41;33.15;;;25.23;;
72813;SDS011;60945;48.516;-2.768;2023-03-02T09:21:07;35.05;;;26.40;;
72813;SDS011;60945;48.516;-2.768;2023-03-02T09:23:33;32.47;;;25.30;;
72813;SDS011;60945;48.516;-2.768;2023-03-02T09:26:00;30.38;;;24.77;;
72813;SDS011;60945;48.516;-2.768;2023-03-02T09:28:26;31.73;;;25.70;;
72813;SDS011;60945;48.516;-2.768;2023-03-02T09:30:53;34.58;;;24.92;;
72813;SDS011;60945;48.516;-2.768;2023-03-02T09:33:21;31.58;;;25.45;;
72813;SDS011;60945;48.516;-2.768;2023-03-02T09:35:48;33.67;;;29.08;;
72813;SDS011;60945;48.516;-2.768;2023-03-02T09:38:14;33.78;;;25.50;;
72813;SDS011;60945;48.516;-2.768;2023-03-02T09:41:03;31.85;;;23.33;;
72813;SDS011;60945;48.516;-2.768;2023-03-02T09:49:40;33.80;;;25.08;;
72813;SDS011;60945;48.516;-2.768;2023-03-02T09:55:11;33.72;;;28.85;;
72813;SDS011;60945;48.516;-2.768;2023-03-02T09:57:39;32.10;;;25.73;;
72813;SDS011;60945;48.516;-2.768;2023-03-02T10:00:06;32.75;;;25.40;;
72813;SDS011;60945;48.516;-2.768;2023-03-02T10:02:47;45.08;;;41.15;;
72813;SDS011;60945;48.516;-2.768;2023-03-02T10:05:20;30.92;;;23.98;;
72813;SDS011;60945;48.516;-2.768;2023-03-02T10:07:49;30.08;;;26.75;;
72813;SDS011;60945;48.516;-2.768;2023-03-02T10:10:22;30.65;;;24.10;;
72813;SDS011;60945;48.516;-2.768;2023-03-02T10:26:55;28.20;;;21.50;;
72813;SDS011;60945;48.516;-2.768;2023-03-02T10:34:43;26.47;;;22.07;;
72813;SDS011;60945;48.516;-2.768;2023-03-02T10:37:13;26.55;;;22.75;;
72813;SDS011;60945;48.516;-2.768;2023-03-02T10:39:41;31.27;;;27.92;;
72813;SDS011;60945;48.516;-2.768;2023-03-02T10:42:10;30.27;;;27.23;;
72813;SDS011;60945;48.516;-2.768;2023-03-02T10:44:44;28.88;;;22.13;;
72813;SDS011;60945;48.516;-2.768;2023-03-02T10:47:25;43.50;;;39.75;;
72813;SDS011;60945;48.516;-2.768;2023-03-02T10:49:53;27.27;;;23.17;;
72813;SDS011;60945;48.516;-2.768;2023-03-02T10:52:21;30.88;;;24.73;;
72813;SDS011;60945;48.516;-2.768;2023-03-02T10:55:04;29.60;;;23.50;;
72813;SDS011;60945;48.516;-2.768;2023-03-02T10:57:38;32.90;;;29.38;;
72813;SDS011;60945;48.516;-2.768;2023-03-02T11:00:23;31.55;;;25.27;;
72813;SDS011;60945;48.516;-2.768;2023-03-02T11:02:54;38.58;;;34.72;;
72813;SDS011;60945;48.516;-2.768;2023-03-02T11:08:24;33.92;;;30.25;;
72813;SDS011;60945;48.516;-2.768;2023-03-02T11:15:57;34.72;;;31.23;;
72813;SDS011;60945;48.516;-2.768;2023-03-02T11:18:51;29.67;;;24.70;;
72813;SDS011;60945;48.516;-2.768;2023-03-02T11:24:27;34.88;;;31.50;;
72813;SDS011;60945;48.516;-2.768;2023-03-02T11:27:00;32.45;;;29.25;;
72813;SDS011;60945;48.516;-2.768;2023-03-02T11:32:10;32.00;;;25.13;;
72813;SDS011;60945;48.516;-2.768;2023-03-02T11:37:21;34.50;;;30.88;;
72813;SDS011;60945;48.516;-2.768;2023-03-02T11:40:15;29.88;;;26.48;;
72813;SDS011;60945;48.516;-2.768;2023-03-02T11:42:50;35.38;;;32.13;;
72813;SDS011;60945;48.516;-2.768;2023-03-02T11:45:22;28.83;;;25.30;;
72813;SDS011;60945;48.516;-2.768;2023-03-02T11:47:55;29.58;;;26.38;;
72813;SDS011;60945;48.516;-2.768;2023-03-02T11:50:26;29.88;;;25.73;;
72813;SDS011;60945;48.516;-2.768;2023-03-02T11:52:53;29.52;;;25.50;;
72813;SDS011;60945;48.516;-2.768;2023-03-02T11:55:26;48.60;;;44.63;;
72813;SDS011;60945;48.516;-2.768;2023-03-02T11:57:56;33.40;;;27.00;;
72813;SDS011;60945;48.516;-2.768;2023-03-02T12:11:04;30.77;;;26.88;;
72813;SDS011;60945;48.516;-2.768;2023-03-02T12:13:31;32.58;;;27.17;;
72813;SDS011;60945;48.516;-2.768;2023-03-02T12:16:03;33.80;;;27.23;;
72813;SDS011;60945;48.516;-2.768;2023-03-02T12:18:44;27.80;;;24.75;;
72813;SDS011;60945;48.516;-2.768;2023-03-02T12:28:59;33.70;;;28.57;;
72813;SDS011;60945;48.516;-2.768;2023-03-02T12:34:08;30.35;;;27.13;;
72813;SDS011;60945;48.516;-2.768;2023-03-02T12:37:50;31.45;;;24.45;;
72813;SDS011;60945;48.516;-2.768;2023-03-02T12:48:20;28.30;;;25.10;;
72813;SDS011;60945;48.516;-2.768;2023-03-02T12:50:50;34.63;;;31.33;;
72813;SDS011;60945;48.516;-2.768;2023-03-02T12:53:19;34.22;;;30.58;;
72813;SDS011;60945;48.516;-2.768;2023-03-02T12:55:45;35.03;;;30.92;;
72813;SDS011;60945;48.516;-2.768;2023-03-02T12:58:18;33.53;;;30.15;;
72813;SDS011;60945;48.516;-2.768;2023-03-02T13:00:49;34.05;;;30.00;;
72813;SDS011;60945;48.516;-2.768;2023-03-02T13:03:16;35.25;;;31.60;;
72813;SDS011;60945;48.516;-2.768;2023-03-02T13:05:42;65.88;;;61.08;;
72813;SDS011;60945;48.516;-2.768;2023-03-02T13:10:48;31.58;;;27.63;;
72813;SDS011;60945;48.516;-2.768;2023-03-02T13:13:20;32.08;;;28.25;;
72813;SDS011;60945;48.516;-2.768;2023-03-02T13:18:26;31.27;;;26.35;;
72813;SDS011;60945;48.516;-2.768;2023-03-02T13:20:56;35.92;;;27.27;;
72813;SDS011;60945;48.516;-2.768;2023-03-02T13:23:22;35.85;;;27.85;;
72813;SDS011;60945;48.516;-2.768;2023-03-02T13:25:53;29.02;;;25.15;;
72813;SDS011;60945;48.516;-2.768;2023-03-02T13:28:21;31.23;;;24.80;;
72813;SDS011;60945;48.516;-2.768;2023-03-02T13:30:49;30.23;;;26.92;;
72813;SDS011;60945;48.516;-2.768;2023-03-02T13:33:25;33.90;;;28.33;;
72813;SDS011;60945;48.516;-2.768;2023-03-02T13:35:51;30.13;;;25.83;;
72813;SDS011;60945;48.516;-2.768;2023-03-02T13:38:18;30.38;;;27.23;;
72813;SDS011;60945;48.516;-2.768;2023-03-02T13:40:46;30.95;;;26.10;;
72813;SDS011;60945;48.516;-2.768;2023-03-02T13:43:37;34.53;;;30.92;;
72813;SDS011;60945;48.516;-2.768;2023-03-02T13:46:05;29.38;;;25.15;;
72813;SDS011;60945;48.516;-2.768;2023-03-02T13:48:53;37.47;;;33.67;;
72813;SDS011;60945;48.516;-2.768;2023-03-02T13:51:23;30.83;;;26.77;;
72813;SDS011;60945;48.516;-2.768;2023-03-02T13:53:52;46.63;;;42.80;;
72813;SDS011;60945;48.516;-2.768;2023-03-02T13:56:33;32.60;;;29.10;;
72813;SDS011;60945;48.516;-2.768;2023-03-02T13:59:07;32.20;;;29.05;;
72813;SDS011;60945;48.516;-2.768;2023-03-02T14:01:39;30.83;;;27.83;;
72813;SDS011;60945;48.516;-2.768;2023-03-02T14:04:17;35.42;;;32.10;;
72813;SDS011;60945;48.516;-2.768;2023-03-02T14:06:48;35.03;;;31.58;;
72813;SDS011;60945;48.516;-2.768;2023-03-02T14:09:15;33.90;;;30.50;;
72813;SDS011;60945;48.516;-2.768;2023-03-02T14:11:41;32.78;;;29.63;;
72813;SDS011;60945;48.516;-2.768;2023-03-02T14:14:15;39.45;;;35.95;;
72813;SDS011;60945;48.516;-2.768;2023-03-02T14:16:42;32.05;;;29.05;;
72813;SDS011;60945;48.516;-2.768;2023-03-02T14:19:09;31.75;;;28.83;;
72813;SDS011;60945;48.516;-2.768;2023-03-02T14:21:37;34.67;;;31.38;;
72813;SDS011;60945;48.516;-2.768;2023-03-02T14:24:04;32.60;;;29.17;;
72813;SDS011;60945;48.516;-2.768;2023-03-02T14:29:48;29.70;;;26.48;;
72813;SDS011;60945;48.516;-2.768;2023-03-02T14:31:49;29.15;;;26.15;;
72813;SDS011;60945;48.516;-2.768;2023-03-02T14:34:15;33.15;;;29.98;;
72813;SDS011;60945;48.516;-2.768;2023-03-02T14:36:42;28.88;;;25.33;;
72813;SDS011;60945;48.516;-2.768;2023-03-02T14:39:20;26.30;;;23.52;;
72813;SDS011;60945;48.516;-2.768;2023-03-02T14:41:51;31.30;;;28.10;;
72813;SDS011;60945;48.516;-2.768;2023-03-02T14:44:18;27.27;;;24.38;;
72813;SDS011;60945;48.516;-2.768;2023-03-02T14:46:43;27.08;;;22.90;;
72813;SDS011;60945;48.516;-2.768;2023-03-02T14:49:09;24.73;;;21.88;;
72813;SDS011;60945;48.516;-2.768;2023-03-02T14:51:35;24.50;;;21.95;;
72813;SDS011;60945;48.516;-2.768;2023-03-02T14:54:05;26.33;;;23.63;;
72813;SDS011;60945;48.516;-2.768;2023-03-02T14:56:33;33.85;;;30.55;;
72813;SDS011;60945;48.516;-2.768;2023-03-02T14:58:58;28.10;;;22.98;;
72813;SDS011;60945;48.516;-2.768;2023-03-02T15:01:24;25.65;;;22.85;;
72813;SDS011;60945;48.516;-2.768;2023-03-02T15:03:50;27.88;;;22.17;;
72813;SDS011;60945;48.516;-2.768;2023-03-02T15:06:29;26.92;;;24.13;;
72813;SDS011;60945;48.516;-2.768;2023-03-02T15:08:57;26.13;;;22.80;;
72813;SDS011;60945;48.516;-2.768;2023-03-02T15:11:24;28.27;;;23.92;;
72813;SDS011;60945;48.516;-2.768;2023-03-02T15:13:52;31.52;;;28.63;;
72813;SDS011;60945;48.516;-2.768;2023-03-02T15:16:21;27.35;;;24.48;;
72813;SDS011;60945;48.516;-2.768;2023-03-02T15:18:47;26.08;;;23.08;;
72813;SDS011;60945;48.516;-2.768;2023-03-02T15:21:15;27.83;;;23.50;;
72813;SDS011;60945;48.516;-2.768;2023-03-02T15:23:45;28.23;;;23.45;;
72813;SDS011;60945;48.516;-2.768;2023-03-02T15:26:11;26.98;;;22.38;;
72813;SDS011;60945;48.516;-2.768;2023-03-02T15:28:37;27.80;;;22.42;;
72813;SDS011;60945;48.516;-2.768;2023-03-02T15:31:10;27.33;;;22.80;;
72813;SDS011;60945;48.516;-2.768;2023-03-02T15:33:38;27.85;;;24.42;;
72813;SDS011;60945;48.516;-2.768;2023-03-02T15:36:04;27.05;;;23.33;;
72813;SDS011;60945;48.516;-2.768;2023-03-02T15:38:31;25.85;;;21.98;;
72813;SDS011;60945;48.516;-2.768;2023-03-02T15:41:02;28.90;;;24.98;;
72813;SDS011;60945;48.516;-2.768;2023-03-02T15:43:32;28.33;;;21.00;;
72813;SDS011;60945;48.516;-2.768;2023-03-02T15:45:58;26.17;;;21.13;;
72813;SDS011;60945;48.516;-2.768;2023-03-02T15:48:24;26.38;;;20.35;;
72813;SDS011;60945;48.516;-2.768;2023-03-02T15:50:58;27.08;;;20.75;;
72813;SDS011;60945;48.516;-2.768;2023-03-02T15:53:25;27.23;;;21.00;;
72813;SDS011;60945;48.516;-2.768;2023-03-02T15:55:51;23.95;;;20.00;;